Thailine 9 — 9WGP9 — position and weather

sailwx.info

Track history (hours):
 
Tides and Currents Weather Stations Pressure Air Temp Water Temp Dewpoint Dewpoint Depression Visibility Wind Speed Wind Dir Waves Ship Positions

Thailine 9

Last reported at 2017-Mar-23 00:26 UTC. Time now 2017-Mar-30 20:25 UTC.
Position N 33°43' E 132°13'.

Length 113 m; draft 4.8 m.

Type: Ship. MMSI: 533791000.

Date/timePositionNaut miles runAvg speedWind from/ knotsBaromVisibWave heightAir tempDewpointWater temp
2017-Mar-23 00:26N 33°43' E 132°13'1011.9
2017-Mar-22 23:33N 33°47' E 132°25'1111.5
2017-Mar-22 22:33N 33°53' E 132°36'11410.2
2017-Mar-22 11:21N 34°33' E 134°46'910.9
2017-Mar-22 10:32N 34°37' E 134°56'10 9.9
2017-Mar-22 09:33N 34°35' E 135°08'10 9.7
2017-Mar-22 08:33N 34°39' E 135°18'3 2.9
2017-Mar-22 07:29N 34°42' E 135°17'0 0.0
2017-Mar-22 06:29N 34°42' E 135°17'0 0.0
2017-Mar-22 05:29N 34°42' E 135°17'0 0.0
2017-Mar-22 04:29N 34°42' E 135°17'0 0.0
2017-Mar-22 03:29N 34°42' E 135°17'0 0.0
2017-Mar-22 02:23N 34°42' E 135°17'0 0.0
2017-Mar-22 01:29N 34°42' E 135°17'0 0.0
2017-Mar-22 00:29N 34°42' E 135°17'0 0.0
2017-Mar-21 23:29N 34°42' E 135°17'0 0.0
2017-Mar-21 22:23N 34°42' E 135°17'0 0.0
2017-Mar-21 21:29N 34°42' E 135°17'0 0.0
2017-Mar-21 20:23N 34°42' E 135°17'0 0.0
2017-Mar-21 19:29N 34°42' E 135°17'0 0.0
2017-Mar-21 18:23N 34°42' E 135°17'0 0.0
2017-Mar-21 17:29N 34°42' E 135°17'0 0.0
2017-Mar-21 16:29N 34°42' E 135°17'0 0.0
2017-Mar-21 15:29N 34°42' E 135°17'0 0.0
2017-Mar-21 14:17N 34°42' E 135°17'0 0.0
2017-Mar-21 13:29N 34°42' E 135°17'0 0.0
2017-Mar-21 12:29N 34°42' E 135°17'0 0.0
2017-Mar-21 11:29N 34°42' E 135°17'0 0.0
2017-Mar-21 10:29N 34°42' E 135°17'0 0.0
2017-Mar-21 09:29N 34°42' E 135°17'0 0.0
2017-Mar-21 08:29N 34°42' E 135°17'0 0.0
2017-Mar-21 07:29N 34°42' E 135°17'0 0.0
2017-Mar-21 06:29N 34°42' E 135°17'0 0.0
2017-Mar-21 05:23N 34°42' E 135°17'0 0.0
2017-Mar-21 04:29N 34°42' E 135°17'0 0.0
2017-Mar-21 03:23N 34°42' E 135°17'0 0.0
2017-Mar-21 02:29N 34°42' E 135°17'0 0.0
2017-Mar-21 01:29N 34°42' E 135°17'0 0.0
2017-Mar-21 00:23N 34°42' E 135°17'0 0.0
2017-Mar-20 23:29N 34°42' E 135°17'0 0.0
2017-Mar-20 22:29N 34°42' E 135°17'2 1.7
2017-Mar-20 21:33N 34°41' E 135°18'8 7.6
2017-Mar-20 20:33N 34°34' E 135°15'1111.4
2017-Mar-20 19:33N 34°25' E 135°06'2 2.0
2017-Mar-20 18:33N 34°24' E 135°05'1111.4
2017-Mar-20 17:33N 34°13' E 134°59'1311.9
2017-Mar-20 16:29N 34°00' E 134°60'  
2017-Mar-15 22:33N 34°54' E 139°46'1110.6
2017-Mar-15 21:33N 35°01' E 139°37'9 9.1
2017-Mar-15 20:32N 35°08' E 139°29'0 0.1
2017-Mar-15 18:20N 35°08' E 139°28'0 0.6
2017-Mar-15 17:32N 35°07' E 139°28'5 5.1
2017-Mar-15 16:29N 35°06' E 139°22'3 0.4
2017-Mar-15 08:22N 35°09' E 139°25'2 1.5
2017-Mar-15 07:13N 35°08' E 139°27'1 0.8
2017-Mar-15 06:06N 35°09' E 139°27'1 1.5
2017-Mar-15 05:33N 35°09' E 139°28'6 4.7
2017-Mar-15 04:20N 35°04' E 139°32'1 1.6
2017-Mar-15 03:26N 35°05' E 139°31'4 1.3
2017-Mar-15 00:26N 35°09' E 139°29'1 0.9
2017-Mar-14 23:26N 35°10' E 139°29'5 5.3
2017-Mar-14 22:32N 35°06' E 139°26'2 0.7
2017-Mar-14 20:28N 35°06' E 139°24'3 1.1
2017-Mar-14 17:32N 35°08' E 139°27'1 0.3
2017-Mar-14 12:32N 35°07' E 139°26'1 0.4
2017-Mar-14 10:21N 35°06' E 139°27'0 0.0
2017-Mar-14 07:33N 35°06' E 139°27'1010.1
2017-Mar-14 06:33N 35°05' E 139°39'1111.0
2017-Mar-14 05:33N 35°14' E 139°46'1010.4
2017-Mar-14 04:33N 35°25' E 139°43'3 3.0
2017-Mar-14 03:32N 35°27' E 139°40'0 0.1
2017-Mar-14 02:32N 35°27' E 139°41'0 0.0
2017-Mar-14 01:32N 35°27' E 139°41'0 0.0
2017-Mar-14 00:32N 35°27' E 139°41'0 0.0
2017-Mar-13 23:32N 35°27' E 139°41'0 0.0
2017-Mar-13 22:32N 35°27' E 139°41'0 0.0
2017-Mar-13 21:32N 35°27' E 139°41'0 0.0
2017-Mar-13 20:32N 35°27' E 139°41'0 0.0
2017-Mar-13 19:32N 35°27' E 139°41'0 0.0
2017-Mar-13 18:32N 35°27' E 139°41'0 0.0
2017-Mar-13 17:32N 35°27' E 139°41'0 0.0
2017-Mar-13 16:32N 35°27' E 139°41'0 0.0
2017-Mar-13 15:32N 35°27' E 139°41'0 0.0
2017-Mar-13 14:32N 35°27' E 139°41'0 0.0
2017-Mar-13 13:32N 35°27' E 139°41'0 0.0
2017-Mar-13 12:32N 35°27' E 139°41'0 0.0
2017-Mar-13 11:32N 35°27' E 139°41'0 0.0
2017-Mar-13 10:32N 35°27' E 139°41'0 0.0
2017-Mar-13 09:32N 35°27' E 139°41'0 0.0
2017-Mar-13 08:32N 35°27' E 139°41'0 0.0
2017-Mar-13 07:32N 35°27' E 139°41'0 0.0
2017-Mar-13 06:32N 35°27' E 139°41'0 0.0
2017-Mar-13 05:32N 35°27' E 139°41'0 0.0
2017-Mar-13 04:32N 35°27' E 139°41'0 0.0
2017-Mar-13 03:32N 35°27' E 139°41'0 0.0
2017-Mar-13 02:32N 35°27' E 139°41'0 0.0
2017-Mar-13 01:32N 35°27' E 139°41'0 0.0
2017-Mar-13 00:32N 35°27' E 139°41'  
Track history (hours):
 
Tides and Currents Weather Stations Pressure Air Temp Water Temp Dewpoint Dewpoint Depression Visibility Wind Speed Wind Dir Waves Ship Positions

Thailine 9

Last reported at 2017-Mar-23 00:26 UTC. Time now 2017-Mar-30 20:25 UTC.
Position N 33°43' E 132°13'.

Length 113 m; draft 4.8 m.

Type: Ship. MMSI: 533791000.

Date/timePositionNaut miles runAvg speedWind from/ knotsBaromVisibWave heightAir tempDewpointWater temp
2017-Mar-23 00:26N 33°43' E 132°13'1011.9
2017-Mar-22 23:33N 33°47' E 132°25'1111.5
2017-Mar-22 22:33N 33°53' E 132°36'11410.2
2017-Mar-22 11:21N 34°33' E 134°46'910.9
2017-Mar-22 10:32N 34°37' E 134°56'10 9.9
2017-Mar-22 09:33N 34°35' E 135°08'10 9.7
2017-Mar-22 08:33N 34°39' E 135°18'3 2.9
2017-Mar-22 07:29N 34°42' E 135°17'0 0.0
2017-Mar-22 06:29N 34°42' E 135°17'0 0.0
2017-Mar-22 05:29N 34°42' E 135°17'0 0.0
2017-Mar-22 04:29N 34°42' E 135°17'0 0.0
2017-Mar-22 03:29N 34°42' E 135°17'0 0.0
2017-Mar-22 02:23N 34°42' E 135°17'0 0.0
2017-Mar-22 01:29N 34°42' E 135°17'0 0.0
2017-Mar-22 00:29N 34°42' E 135°17'0 0.0
2017-Mar-21 23:29N 34°42' E 135°17'0 0.0
2017-Mar-21 22:23N 34°42' E 135°17'0 0.0
2017-Mar-21 21:29N 34°42' E 135°17'0 0.0
2017-Mar-21 20:23N 34°42' E 135°17'0 0.0
2017-Mar-21 19:29N 34°42' E 135°17'0 0.0
2017-Mar-21 18:23N 34°42' E 135°17'0 0.0
2017-Mar-21 17:29N 34°42' E 135°17'0 0.0
2017-Mar-21 16:29N 34°42' E 135°17'0 0.0
2017-Mar-21 15:29N 34°42' E 135°17'0 0.0
2017-Mar-21 14:17N 34°42' E 135°17'0 0.0
2017-Mar-21 13:29N 34°42' E 135°17'0 0.0
2017-Mar-21 12:29N 34°42' E 135°17'0 0.0
2017-Mar-21 11:29N 34°42' E 135°17'0 0.0
2017-Mar-21 10:29N 34°42' E 135°17'0 0.0
2017-Mar-21 09:29N 34°42' E 135°17'0 0.0
2017-Mar-21 08:29N 34°42' E 135°17'0 0.0
2017-Mar-21 07:29N 34°42' E 135°17'0 0.0
2017-Mar-21 06:29N 34°42' E 135°17'0 0.0
2017-Mar-21 05:23N 34°42' E 135°17'0 0.0
2017-Mar-21 04:29N 34°42' E 135°17'0 0.0
2017-Mar-21 03:23N 34°42' E 135°17'0 0.0
2017-Mar-21 02:29N 34°42' E 135°17'0 0.0
2017-Mar-21 01:29N 34°42' E 135°17'0 0.0
2017-Mar-21 00:23N 34°42' E 135°17'0 0.0
2017-Mar-20 23:29N 34°42' E 135°17'0 0.0
2017-Mar-20 22:29N 34°42' E 135°17'2 1.7
2017-Mar-20 21:33N 34°41' E 135°18'8 7.6
2017-Mar-20 20:33N 34°34' E 135°15'1111.4
2017-Mar-20 19:33N 34°25' E 135°06'2 2.0
2017-Mar-20 18:33N 34°24' E 135°05'1111.4
2017-Mar-20 17:33N 34°13' E 134°59'1311.9
2017-Mar-20 16:29N 34°00' E 134°60'  
2017-Mar-15 22:33N 34°54' E 139°46'1110.6
2017-Mar-15 21:33N 35°01' E 139°37'9 9.1
2017-Mar-15 20:32N 35°08' E 139°29'0 0.1
2017-Mar-15 18:20N 35°08' E 139°28'0 0.6
2017-Mar-15 17:32N 35°07' E 139°28'5 5.1
2017-Mar-15 16:29N 35°06' E 139°22'3 0.4
2017-Mar-15 08:22N 35°09' E 139°25'2 1.5
2017-Mar-15 07:13N 35°08' E 139°27'1 0.8
2017-Mar-15 06:06N 35°09' E 139°27'1 1.5
2017-Mar-15 05:33N 35°09' E 139°28'6 4.7
2017-Mar-15 04:20N 35°04' E 139°32'1 1.6
2017-Mar-15 03:26N 35°05' E 139°31'4 1.3
2017-Mar-15 00:26N 35°09' E 139°29'1 0.9
2017-Mar-14 23:26N 35°10' E 139°29'5 5.3
2017-Mar-14 22:32N 35°06' E 139°26'2 0.7
2017-Mar-14 20:28N 35°06' E 139°24'3 1.1
2017-Mar-14 17:32N 35°08' E 139°27'1 0.3
2017-Mar-14 12:32N 35°07' E 139°26'1 0.4
2017-Mar-14 10:21N 35°06' E 139°27'0 0.0
2017-Mar-14 07:33N 35°06' E 139°27'1010.1
2017-Mar-14 06:33N 35°05' E 139°39'1111.0
2017-Mar-14 05:33N 35°14' E 139°46'1010.4
2017-Mar-14 04:33N 35°25' E 139°43'3 3.0
2017-Mar-14 03:32N 35°27' E 139°40'0 0.1
2017-Mar-14 02:32N 35°27' E 139°41'0 0.0
2017-Mar-14 01:32N 35°27' E 139°41'0 0.0
2017-Mar-14 00:32N 35°27' E 139°41'0 0.0
2017-Mar-13 23:32N 35°27' E 139°41'0 0.0
2017-Mar-13 22:32N 35°27' E 139°41'0 0.0
2017-Mar-13 21:32N 35°27' E 139°41'0 0.0
2017-Mar-13 20:32N 35°27' E 139°41'0 0.0
2017-Mar-13 19:32N 35°27' E 139°41'0 0.0
2017-Mar-13 18:32N 35°27' E 139°41'0 0.0
2017-Mar-13 17:32N 35°27' E 139°41'0 0.0
2017-Mar-13 16:32N 35°27' E 139°41'0 0.0
2017-Mar-13 15:32N 35°27' E 139°41'0 0.0
2017-Mar-13 14:32N 35°27' E 139°41'0 0.0
2017-Mar-13 13:32N 35°27' E 139°41'0 0.0
2017-Mar-13 12:32N 35°27' E 139°41'0 0.0
2017-Mar-13 11:32N 35°27' E 139°41'0 0.0
2017-Mar-13 10:32N 35°27' E 139°41'0 0.0
2017-Mar-13 09:32N 35°27' E 139°41'0 0.0
2017-Mar-13 08:32N 35°27' E 139°41'0 0.0
2017-Mar-13 07:32N 35°27' E 139°41'0 0.0
2017-Mar-13 06:32N 35°27' E 139°41'0 0.0
2017-Mar-13 05:32N 35°27' E 139°41'0 0.0
2017-Mar-13 04:32N 35°27' E 139°41'0 0.0
2017-Mar-13 03:32N 35°27' E 139°41'0 0.0
2017-Mar-13 02:32N 35°27' E 139°41'0 0.0
2017-Mar-13 01:32N 35°27' E 139°41'0 0.0
2017-Mar-13 00:32N 35°27' E 139°41'  

Dump ship's entire track history